createdAt,value
2018-04-23T00:02:14.395Z,13.57
2018-04-23T00:04:41.898Z,13.00
2018-04-23T00:07:09.410Z,12.83
2018-04-23T00:09:36.949Z,13.20
2018-04-23T00:12:04.516Z,12.60
2018-04-23T00:14:32.025Z,12.50
2018-04-23T00:16:59.571Z,12.80
2018-04-23T00:19:27.119Z,12.20
2018-04-23T00:21:54.673Z,13.47
2018-04-23T00:24:22.208Z,12.73
2018-04-23T00:26:49.988Z,13.07
2018-04-23T00:29:17.492Z,12.00
2018-04-23T00:31:45.317Z,12.10
2018-04-23T00:34:12.835Z,12.03
2018-04-23T00:36:40.366Z,13.30
2018-04-23T00:39:07.929Z,12.87
2018-04-23T00:41:35.421Z,13.07
2018-04-23T00:44:02.937Z,12.77
2018-04-23T00:46:31.151Z,13.27
2018-04-23T00:48:58.666Z,13.23
2018-04-23T00:51:26.209Z,13.50
2018-04-23T00:53:53.839Z,14.27
2018-04-23T00:56:21.354Z,12.57
2018-04-23T00:58:48.924Z,13.67
2018-04-23T01:01:16.482Z,13.43
2018-04-23T01:03:44.034Z,14.07
2018-04-23T01:06:11.569Z,13.33
2018-04-23T01:08:39.129Z,12.70
2018-04-23T01:11:06.690Z,13.23
2018-04-23T01:13:34.215Z,15.07
2018-04-23T01:16:01.778Z,13.13
2018-04-23T01:18:29.293Z,13.60
2018-04-23T01:20:56.818Z,13.23
2018-04-23T01:23:24.495Z,13.07
2018-04-23T01:25:52.017Z,13.80
2018-04-23T01:28:19.608Z,13.53
2018-04-23T01:30:47.111Z,15.00
2018-04-23T01:33:14.648Z,14.20
2018-04-23T01:35:42.174Z,15.70
2018-04-23T01:38:09.736Z,14.43
2018-04-23T01:40:37.247Z,14.63
2018-04-23T01:43:04.793Z,14.00
2018-04-23T01:45:32.538Z,14.93
2018-04-23T01:48:00.096Z,14.70
2018-04-23T01:50:27.717Z,14.43
2018-04-23T01:52:55.252Z,13.90
2018-04-23T01:55:22.797Z,15.07
2018-04-23T01:57:50.343Z,15.10
2018-04-23T02:00:17.880Z,14.50
2018-04-23T02:02:45.467Z,14.43
2018-04-23T02:05:13.003Z,14.93
2018-04-23T02:07:40.543Z,14.20
2018-04-23T02:10:08.050Z,15.17
2018-04-23T02:12:35.581Z,15.33
2018-04-23T02:15:03.198Z,15.70
2018-04-23T02:17:30.729Z,15.27
2018-04-23T02:19:58.259Z,15.13
2018-04-23T02:22:25.793Z,15.10
2018-04-23T02:24:53.305Z,15.03
2018-04-23T02:27:20.849Z,14.73
2018-04-23T02:29:48.389Z,16.53
2018-04-23T02:32:16.298Z,15.57
2018-04-23T02:34:43.818Z,15.30
2018-04-23T02:37:11.349Z,14.47
2018-04-23T02:39:38.899Z,15.07
2018-04-23T02:42:06.517Z,15.60
2018-04-23T02:44:34.070Z,16.70
2018-04-23T02:47:01.623Z,14.80
2018-04-23T02:49:29.157Z,15.67
2018-04-23T02:51:56.692Z,14.60
2018-04-23T02:54:24.233Z,16.10
2018-04-23T02:56:51.760Z,16.33
2018-04-23T02:59:19.335Z,15.70
2018-04-23T03:01:46.843Z,16.27
2018-04-23T03:04:14.367Z,16.57
2018-04-23T03:06:42.148Z,16.77
2018-04-23T03:09:09.777Z,16.37
2018-04-23T03:11:37.287Z,15.73
2018-04-23T03:14:04.849Z,16.10
2018-04-23T03:16:32.361Z,16.70
2018-04-23T03:18:59.919Z,16.37
2018-04-23T03:21:27.717Z,17.30
2018-04-23T03:23:55.318Z,16.17
2018-04-23T03:26:22.829Z,15.23
2018-04-23T03:28:50.362Z,15.60
2018-04-23T03:31:17.900Z,16.40
2018-04-23T03:33:45.454Z,16.20
2018-04-23T03:36:12.951Z,17.07
2018-04-23T03:38:40.506Z,16.07
2018-04-23T03:41:08.071Z,16.43
2018-04-23T03:43:35.619Z,16.23
2018-04-23T03:46:03.178Z,16.63
2018-04-23T03:48:30.741Z,16.00
2018-04-23T03:50:58.650Z,16.93
2018-04-23T03:53:26.190Z,15.27
2018-04-23T03:55:53.739Z,15.50
2018-04-23T03:58:21.358Z,15.20
2018-04-23T04:00:49.208Z,14.70
2018-04-23T04:03:16.742Z,15.07
2018-04-23T04:05:44.527Z,15.80
2018-04-23T04:08:12.070Z,16.07
2018-04-23T04:10:39.590Z,15.87
2018-04-23T04:13:19.072Z,17.03
2018-04-23T04:15:58.753Z,15.20
2018-04-23T04:18:38.401Z,15.33
2018-04-23T04:21:05.926Z,15.27
2018-04-23T04:23:33.492Z,16.00
2018-04-23T04:26:01.046Z,15.93
2018-04-23T04:28:29.427Z,15.90
2018-04-23T04:30:57.326Z,15.30
2018-04-23T04:33:24.851Z,15.13
2018-04-23T04:35:52.380Z,15.10
2018-04-23T04:38:20.428Z,15.10
2018-04-23T04:40:47.960Z,15.30
2018-04-23T04:43:15.478Z,15.17
2018-04-23T04:45:43.037Z,16.10
2018-04-23T04:48:10.602Z,15.73
2018-04-23T04:50:38.147Z,15.77
2018-04-23T04:53:05.665Z,15.67
2018-04-23T04:55:33.181Z,16.77
2018-04-23T04:58:01.093Z,16.07
2018-04-23T05:00:28.667Z,16.17
2018-04-23T05:02:56.627Z,14.53
2018-04-23T05:05:24.492Z,14.10
2018-04-23T05:07:52.002Z,15.70
2018-04-23T05:10:19.609Z,15.80
2018-04-23T05:12:47.187Z,15.67
2018-04-23T05:15:14.706Z,15.97
2018-04-23T05:17:42.299Z,16.10
2018-04-23T05:20:09.837Z,14.93
2018-04-23T05:22:37.413Z,16.10
2018-04-23T05:25:04.972Z,15.80
2018-04-23T05:27:32.503Z,15.40
2018-04-23T05:30:00.059Z,16.90
2018-04-23T05:32:27.574Z,16.10
2018-04-23T05:34:55.438Z,15.67
2018-04-23T05:37:23.108Z,15.27
2018-04-23T05:39:51.071Z,14.90
2018-04-23T05:42:18.568Z,14.50
2018-04-23T05:44:46.396Z,14.97
2018-04-23T05:47:14.051Z,15.50
2018-04-23T05:49:41.596Z,15.93
2018-04-23T05:52:09.127Z,15.57
2018-04-23T05:54:36.669Z,15.20
2018-04-23T05:57:04.269Z,14.40
2018-04-23T05:59:31.799Z,15.80
2018-04-23T06:01:59.320Z,16.23
2018-04-23T06:04:26.851Z,15.40
2018-04-23T06:06:54.372Z,15.70
2018-04-23T06:09:21.892Z,15.27
2018-04-23T06:11:49.429Z,15.67
2018-04-23T06:14:17.118Z,15.10
2018-04-23T06:16:44.680Z,14.07
2018-04-23T06:19:12.760Z,14.63
2018-04-23T06:21:40.716Z,13.87
2018-04-23T06:24:08.322Z,14.43
2018-04-23T06:26:35.861Z,14.40
2018-04-23T06:29:03.413Z,14.03
2018-04-23T06:31:30.958Z,14.90
2018-04-23T06:33:58.490Z,12.80
2018-04-23T06:36:26.083Z,12.97
2018-04-23T06:38:57.062Z,12.93
2018-04-23T06:41:24.660Z,12.90
2018-04-23T06:43:52.790Z,14.07
2018-04-23T06:46:20.334Z,12.80
2018-04-23T06:48:48.070Z,13.17
2018-04-23T06:51:17.698Z,12.67
2018-04-23T06:53:45.289Z,12.73
2018-04-23T06:56:12.833Z,12.70
2018-04-23T06:58:40.374Z,12.70
2018-04-23T07:01:07.927Z,13.23
2018-04-23T07:03:35.658Z,12.53
2018-04-23T07:06:04.099Z,12.57
2018-04-23T07:08:31.944Z,12.83
2018-04-23T07:11:00.607Z,12.10
2018-04-23T07:13:28.869Z,12.20
2018-04-23T07:15:59.406Z,12.93
2018-04-23T07:18:27.751Z,12.63
2018-04-23T07:20:55.309Z,12.97
2018-04-23T07:23:22.903Z,12.90
2018-04-23T07:25:50.445Z,13.60
2018-04-23T07:28:17.971Z,13.50
2018-04-23T07:30:45.507Z,13.07
2018-04-23T07:33:13.285Z,12.80
2018-04-23T07:35:42.600Z,12.53
2018-04-23T07:38:10.197Z,12.37
2018-04-23T07:40:40.461Z,12.80
2018-04-23T07:43:08.390Z,11.63
2018-04-23T07:45:36.577Z,13.53
2018-04-23T07:48:04.556Z,12.00
2018-04-23T07:50:32.101Z,14.03
2018-04-23T07:52:59.629Z,12.87
2018-04-23T07:55:27.327Z,13.40
2018-04-23T07:57:54.942Z,12.80
2018-04-23T08:00:22.540Z,12.93
2018-04-23T08:02:51.178Z,12.03
2018-04-23T08:05:19.658Z,13.10
2018-04-23T08:07:47.441Z,12.50
2018-04-23T08:10:15.085Z,12.73
2018-04-23T08:12:42.661Z,12.67
2018-04-23T08:15:12.099Z,11.70
2018-04-23T08:17:39.653Z,13.17
2018-04-23T08:20:07.215Z,12.43
2018-04-23T08:22:35.622Z,11.37
2018-04-23T08:25:04.874Z,11.70
2018-04-23T08:27:32.566Z,11.50
2018-04-23T08:30:00.191Z,11.53
2018-04-23T08:32:27.729Z,11.10
2018-04-23T08:34:55.519Z,10.70
2018-04-23T08:37:23.385Z,11.87
2018-04-23T08:39:50.927Z,11.20
2018-04-23T08:42:21.657Z,11.00
2018-04-23T08:44:49.170Z,10.70
2018-04-23T08:47:24.317Z,10.90
2018-04-23T08:49:53.736Z,10.23
2018-04-23T08:52:24.405Z,10.70
2018-04-23T08:54:55.191Z,10.57
2018-04-23T08:57:26.691Z,9.80
2018-04-23T08:59:55.981Z,10.23
2018-04-23T09:02:23.589Z,10.20
2018-04-23T09:04:53.203Z,10.40
2018-04-23T09:07:20.770Z,10.07
2018-04-23T09:09:49.762Z,9.73
2018-04-23T09:12:17.490Z,11.20
2018-04-23T09:14:45.014Z,9.97
2018-04-23T09:17:12.699Z,11.07
2018-04-23T09:19:40.236Z,11.17
2018-04-23T09:22:07.782Z,10.20
2018-04-23T09:24:35.346Z,10.63
2018-04-23T09:27:02.950Z,11.23
2018-04-23T09:29:30.481Z,12.00
2018-04-23T09:31:58.508Z,12.23
2018-04-23T09:34:26.038Z,12.67
2018-04-23T09:36:53.621Z,13.20
2018-04-23T09:39:21.177Z,13.30
2018-04-23T09:41:48.760Z,11.93
2018-04-23T09:44:16.287Z,13.47
2018-04-23T09:46:44.272Z,13.60
2018-04-23T09:49:12.142Z,13.47
2018-04-23T09:51:39.696Z,13.07
2018-04-23T09:54:07.205Z,13.33
2018-04-23T09:56:34.734Z,13.93
2018-04-23T09:59:02.317Z,13.20
2018-04-23T10:01:29.846Z,13.50
2018-04-23T10:04:03.039Z,14.40
2018-04-23T10:06:30.579Z,14.33
2018-04-23T10:08:58.128Z,14.30
2018-04-23T10:11:26.248Z,15.90
2018-04-23T10:13:53.834Z,16.37
2018-04-23T10:16:21.395Z,16.10
2018-04-23T10:18:48.936Z,16.13
2018-04-23T10:21:16.527Z,16.60
2018-04-23T10:23:44.114Z,15.40
2018-04-23T10:26:11.676Z,15.10
2018-04-23T10:28:39.400Z,15.60
2018-04-23T10:31:06.942Z,15.60
2018-04-23T10:33:35.350Z,15.20
2018-04-23T10:36:03.846Z,15.43
2018-04-23T10:38:31.523Z,17.53
2018-04-23T10:40:59.291Z,15.87
2018-04-23T10:43:26.844Z,17.10
2018-04-23T10:45:54.437Z,17.47
2018-04-23T10:48:22.313Z,17.67
2018-04-23T10:50:49.836Z,16.87
2018-04-23T10:53:17.367Z,17.43
2018-04-23T10:55:44.948Z,17.00
2018-04-23T10:58:12.494Z,16.40
2018-04-23T11:00:40.022Z,17.03
2018-04-23T11:03:07.580Z,16.80
2018-04-23T11:05:35.124Z,15.47
2018-04-23T11:08:02.656Z,15.37
2018-04-23T11:10:30.212Z,14.50
2018-04-23T11:12:57.773Z,14.67
2018-04-23T11:15:25.572Z,13.70
2018-04-23T11:17:53.207Z,13.20
2018-04-23T11:20:20.854Z,12.93
2018-04-23T11:22:48.405Z,13.57
2018-04-23T11:25:16.068Z,12.70
2018-04-23T11:27:44.699Z,12.87
2018-04-23T11:30:12.245Z,13.70
2018-04-23T11:32:39.819Z,12.67
2018-04-23T11:35:07.692Z,12.53
2018-04-23T11:37:35.248Z,12.70
2018-04-23T11:40:02.850Z,13.13
2018-04-23T11:42:30.852Z,13.30
2018-04-23T11:44:58.409Z,12.10
2018-04-23T11:47:30.088Z,13.20
2018-04-23T11:49:57.704Z,13.00
2018-04-23T11:52:25.247Z,12.20
2018-04-23T11:54:53.912Z,12.80
2018-04-23T11:57:21.569Z,12.60
2018-04-23T11:59:49.143Z,12.43
2018-04-23T12:02:16.728Z,11.90
2018-04-23T12:04:44.642Z,12.80
2018-04-23T12:07:13.287Z,12.60
2018-04-23T12:09:40.835Z,12.20
2018-04-23T12:12:08.683Z,12.57
2018-04-23T12:14:36.533Z,12.60
2018-04-23T12:17:05.119Z,12.47
2018-04-23T12:19:32.741Z,12.53
2018-04-23T12:22:00.337Z,12.70
2018-04-23T12:24:28.085Z,12.97
2018-04-23T12:26:55.976Z,13.47
2018-04-23T12:29:23.526Z,13.93
2018-04-23T12:31:51.090Z,13.00
2018-04-23T12:34:18.754Z,13.00
2018-04-23T12:36:46.314Z,13.73
2018-04-23T12:39:13.859Z,14.30
2018-04-23T12:41:41.397Z,13.20
2018-04-23T12:44:08.955Z,13.93
2018-04-23T12:46:36.517Z,14.27
2018-04-23T12:49:04.045Z,15.27
2018-04-23T12:51:31.599Z,15.30
2018-04-23T12:53:59.471Z,12.87
2018-04-23T12:56:27.013Z,13.90
2018-04-23T12:58:55.543Z,12.53
2018-04-23T13:01:23.227Z,13.70
2018-04-23T13:03:50.776Z,13.37
2018-04-23T13:06:18.387Z,13.30
2018-04-23T13:08:45.946Z,13.80
2018-04-23T13:11:13.515Z,13.70
2018-04-23T13:13:41.073Z,13.80
2018-04-23T13:16:08.688Z,14.20
2018-04-23T13:18:36.257Z,14.57
2018-04-23T13:21:03.832Z,14.00
2018-04-23T13:23:31.753Z,14.17
2018-04-23T13:25:59.412Z,14.33
2018-04-23T13:28:26.975Z,14.30
2018-04-23T13:30:54.570Z,16.67
2018-04-23T13:33:22.082Z,16.10
2018-04-23T13:35:49.609Z,15.73
2018-04-23T13:38:17.318Z,17.57
2018-04-23T13:40:44.870Z,16.73
2018-04-23T13:43:12.384Z,15.37
2018-04-23T13:45:39.950Z,15.83
2018-04-23T13:48:07.525Z,15.73
2018-04-23T13:50:35.200Z,15.40
2018-04-23T13:53:02.752Z,15.40
2018-04-23T13:55:30.299Z,15.20
2018-04-23T13:57:57.837Z,15.80
2018-04-23T14:00:25.490Z,15.53
2018-04-23T14:02:53.045Z,15.90
2018-04-23T14:05:20.649Z,16.20
2018-04-23T14:07:48.248Z,16.87
2018-04-23T14:10:15.807Z,16.37
2018-04-23T14:12:43.363Z,15.80
2018-04-23T14:15:10.919Z,16.50
2018-04-23T14:17:38.531Z,14.60
2018-04-23T14:20:06.003Z,14.60
2018-04-23T14:22:33.566Z,14.50
2018-04-23T14:25:01.166Z,14.07
2018-04-23T14:27:28.723Z,14.60
2018-04-23T14:29:56.297Z,12.77
2018-04-23T14:32:23.913Z,13.10
2018-04-23T14:34:51.508Z,13.50
2018-04-23T14:37:19.028Z,14.33
2018-04-23T14:39:46.641Z,12.73
2018-04-23T14:42:14.188Z,12.90
2018-04-23T14:44:43.256Z,12.10
2018-04-23T14:47:10.860Z,12.20
2018-04-23T14:49:38.408Z,12.67
2018-04-23T14:52:05.998Z,12.20
2018-04-23T14:54:34.271Z,11.30
2018-04-23T14:57:03.498Z,11.13
2018-04-23T14:59:31.261Z,11.73
2018-04-23T15:01:58.804Z,10.83
2018-04-23T15:04:27.246Z,11.57
2018-04-23T15:06:54.987Z,11.07
2018-04-23T15:09:22.621Z,12.40
2018-04-23T15:11:50.306Z,11.50
2018-04-23T15:14:18.239Z,10.50
2018-04-23T15:16:45.921Z,11.60
2018-04-23T15:19:13.490Z,11.30
2018-04-23T15:21:42.005Z,10.57
2018-04-23T15:24:09.808Z,11.17
2018-04-23T15:26:37.847Z,11.00
2018-04-23T15:29:05.401Z,11.37
2018-04-23T15:31:32.945Z,11.00
2018-04-23T15:34:00.498Z,10.57
2018-04-23T15:36:28.320Z,10.63
2018-04-23T15:38:55.902Z,10.90
2018-04-23T15:41:23.436Z,11.20
2018-04-23T15:43:51.038Z,10.63
2018-04-23T15:46:18.589Z,10.70
2018-04-23T15:48:46.137Z,10.17
2018-04-23T15:51:13.678Z,10.17
2018-04-23T15:53:41.215Z,10.93
2018-04-23T15:56:08.771Z,9.70
2018-04-23T15:58:36.295Z,10.70
2018-04-23T16:01:03.816Z,10.07
2018-04-23T16:03:32.537Z,9.90
2018-04-23T16:06:00.071Z,9.63
2018-04-23T16:08:27.682Z,10.07
2018-04-23T16:10:55.489Z,9.60
2018-04-23T16:13:23.046Z,10.67
2018-04-23T16:15:50.675Z,9.70
2018-04-23T16:18:19.202Z,10.67
2018-04-23T16:20:46.752Z,10.50
2018-04-23T16:23:14.311Z,9.73
2018-04-23T16:25:42.895Z,9.83
2018-04-23T16:28:10.462Z,10.00
2018-04-23T16:30:38.144Z,9.70
2018-04-23T16:33:05.674Z,9.43
2018-04-23T16:35:33.341Z,9.40
2018-04-23T16:38:00.891Z,10.27
2018-04-23T16:40:28.424Z,10.27
2018-04-23T16:42:55.947Z,9.83
2018-04-23T16:45:23.473Z,9.70
2018-04-23T16:47:51.026Z,10.00
2018-04-23T16:50:18.611Z,10.23
2018-04-23T16:52:46.381Z,9.77
2018-04-23T16:55:13.925Z,10.30
2018-04-23T16:57:43.241Z,9.87
2018-04-23T17:00:10.900Z,10.30
2018-04-23T17:02:38.666Z,9.90
2018-04-23T17:05:06.310Z,10.17
2018-04-23T17:07:33.843Z,9.93
2018-04-23T17:10:01.392Z,10.03
2018-04-23T17:12:28.989Z,10.07
2018-04-23T17:14:57.487Z,9.90
2018-04-23T17:17:25.038Z,9.50
2018-04-23T17:19:52.570Z,9.37
2018-04-23T17:22:20.370Z,9.97
2018-04-23T17:24:47.921Z,10.40
2018-04-23T17:27:15.444Z,10.40
2018-04-23T17:29:42.971Z,9.90
2018-04-23T17:32:10.558Z,9.50
2018-04-23T17:34:38.493Z,9.83
2018-04-23T17:37:06.196Z,10.17
2018-04-23T17:39:33.844Z,10.07
2018-04-23T17:42:01.395Z,9.73
2018-04-23T17:44:28.981Z,10.13
2018-04-23T17:46:56.579Z,10.60
2018-04-23T17:49:24.471Z,10.17
2018-04-23T17:51:52.331Z,10.00
2018-04-23T17:54:20.201Z,11.10
2018-04-23T17:56:47.781Z,9.90
2018-04-23T17:59:15.447Z,10.03
2018-04-23T18:01:42.982Z,10.03
2018-04-23T18:04:10.550Z,11.30
2018-04-23T18:06:38.049Z,10.13
2018-04-23T18:09:06.518Z,10.97
2018-04-23T18:11:34.068Z,9.83
2018-04-23T18:14:01.646Z,10.83
2018-04-23T18:16:29.464Z,10.33
2018-04-23T18:18:56.990Z,10.27
2018-04-23T18:21:24.525Z,11.07
2018-04-23T18:23:52.075Z,10.80
2018-04-23T18:26:19.607Z,10.20
2018-04-23T18:28:47.282Z,10.57
2018-04-23T18:31:14.816Z,10.60
2018-04-23T18:33:42.350Z,10.37
2018-04-23T18:36:09.896Z,10.60
2018-04-23T18:38:37.672Z,12.57
2018-04-23T18:41:05.235Z,10.77
2018-04-23T18:43:32.946Z,11.37
2018-04-23T18:46:00.501Z,11.00
2018-04-23T18:48:28.022Z,11.03
2018-04-23T18:50:55.631Z,11.13
2018-04-23T18:53:23.138Z,10.77
2018-04-23T18:55:50.956Z,11.23
2018-04-23T18:58:18.497Z,11.03
2018-04-23T19:00:46.064Z,11.53
2018-04-23T19:03:13.839Z,12.00
2018-04-23T19:05:41.429Z,11.87
2018-04-23T19:08:09.363Z,12.50
2018-04-23T19:10:36.935Z,11.60
2018-04-23T19:13:04.467Z,11.70
2018-04-23T19:15:32.081Z,11.67
2018-04-23T19:17:59.632Z,11.87
2018-04-23T19:20:27.152Z,12.93
2018-04-23T19:22:54.709Z,12.03
2018-04-23T19:25:22.373Z,12.20
2018-04-23T19:27:50.040Z,12.23
2018-04-23T19:30:17.663Z,11.97
2018-04-23T19:32:47.170Z,13.37
2018-04-23T19:35:15.480Z,12.60
2018-04-23T19:37:43.057Z,12.50
2018-04-23T19:40:10.603Z,13.67
2018-04-23T19:42:38.224Z,12.13
2018-04-23T19:45:05.763Z,12.63
2018-04-23T19:47:33.316Z,13.17
2018-04-23T19:50:00.882Z,12.73
2018-04-23T19:52:28.509Z,13.10
2018-04-23T19:54:56.096Z,12.63
2018-04-23T19:57:23.661Z,13.57
2018-04-23T19:59:51.214Z,12.53
2018-04-23T20:02:19.384Z,13.47
2018-04-23T20:04:46.946Z,13.73
2018-04-23T20:07:14.474Z,14.23
2018-04-23T20:09:42.030Z,13.40
2018-04-23T20:12:09.552Z,13.10
2018-04-23T20:14:37.123Z,12.47
2018-04-23T20:17:04.735Z,13.03
2018-04-23T20:19:32.272Z,12.70
2018-04-23T20:21:59.813Z,12.93
2018-04-23T20:24:27.387Z,13.27
2018-04-23T20:26:55.163Z,14.17
2018-04-23T20:29:22.711Z,13.37
2018-04-23T20:31:50.454Z,14.07
2018-04-23T20:34:18.120Z,13.30
2018-04-23T20:36:45.665Z,12.83
2018-04-23T20:39:13.228Z,12.83
2018-04-23T20:41:40.750Z,13.90
2018-04-23T20:44:08.553Z,13.20
2018-04-23T20:46:36.234Z,16.60
2018-04-23T20:49:03.784Z,13.40
2018-04-23T20:51:31.307Z,14.13
2018-04-23T20:53:58.829Z,13.00
2018-04-23T20:56:26.663Z,12.87
2018-04-23T20:58:54.172Z,12.80
2018-04-23T21:01:21.918Z,13.73
2018-04-23T21:03:49.448Z,13.30
2018-04-23T21:06:17.043Z,12.97
2018-04-23T21:08:44.872Z,12.27
2018-04-23T21:11:12.473Z,13.00
2018-04-23T21:13:40.296Z,12.80
2018-04-23T21:16:07.863Z,12.63
2018-04-23T21:18:35.406Z,13.13
2018-04-23T21:21:03.182Z,12.80
2018-04-23T21:23:30.704Z,13.60
2018-04-23T21:25:58.402Z,12.97
2018-04-23T21:28:25.917Z,13.00
2018-04-23T21:30:53.534Z,13.40
2018-04-23T21:33:21.305Z,12.80
2018-04-23T21:35:48.825Z,12.73
2018-04-23T21:38:16.343Z,13.00
2018-04-23T21:40:43.875Z,13.23
2018-04-23T21:43:11.445Z,12.10
2018-04-23T21:45:38.972Z,12.07
2018-04-23T21:48:06.780Z,12.80
2018-04-23T21:50:34.337Z,12.60
2018-04-23T21:53:01.948Z,13.17
2018-04-23T21:55:29.481Z,13.10
2018-04-23T21:57:56.982Z,13.73
2018-04-23T22:00:24.546Z,12.70
2018-04-23T22:02:52.197Z,12.47
2018-04-23T22:05:19.779Z,12.03
2018-04-23T22:07:47.304Z,12.53
2018-04-23T22:10:14.901Z,12.27
2018-04-23T22:12:42.415Z,12.67
2018-04-23T22:15:09.930Z,13.17
2018-04-23T22:17:37.461Z,12.40
2018-04-23T22:20:04.981Z,12.40
2018-04-23T22:22:32.497Z,12.70
2018-04-23T22:25:00.045Z,12.20
2018-04-23T22:27:27.839Z,12.27
2018-04-23T22:29:55.705Z,12.53
2018-04-23T22:32:23.469Z,11.90
2018-04-23T22:34:51.019Z,11.83
2018-04-23T22:37:18.622Z,12.23
2018-04-23T22:39:46.461Z,13.00
2018-04-23T22:42:14.245Z,13.10
2018-04-23T22:44:41.799Z,12.57
2018-04-23T22:47:09.338Z,12.03
2018-04-23T22:49:37.228Z,12.70
2018-04-23T22:52:04.758Z,12.23
2018-04-23T22:54:32.327Z,12.50
2018-04-23T22:56:59.915Z,11.50
2018-04-23T22:59:27.475Z,11.93
2018-04-23T23:01:56.480Z,11.77
2018-04-23T23:04:24.129Z,12.30
2018-04-23T23:06:51.842Z,12.07
2018-04-23T23:09:19.370Z,11.87
2018-04-23T23:11:46.921Z,12.10
2018-04-23T23:14:14.469Z,11.80
2018-04-23T23:16:42.137Z,12.60
2018-04-23T23:19:09.653Z,12.20
2018-04-23T23:21:37.158Z,13.07
2018-04-23T23:24:04.717Z,12.90
2018-04-23T23:26:32.239Z,12.70
2018-04-23T23:28:59.763Z,13.20
2018-04-23T23:31:27.298Z,12.10
2018-04-23T23:33:54.908Z,12.23
2018-04-23T23:36:22.448Z,12.77
2018-04-23T23:38:49.974Z,11.87
2018-04-23T23:41:17.485Z,12.47
2018-04-23T23:43:45.018Z,12.20
2018-04-23T23:46:12.540Z,12.03
2018-04-23T23:48:40.082Z,12.40
2018-04-23T23:51:07.596Z,11.90
2018-04-23T23:53:35.432Z,12.60
2018-04-23T23:56:03.294Z,12.83
2018-04-23T23:58:30.927Z,11.80
